Weather at UMASS Memorial Medical Center-Univ Campus Heliport

Public forecast

Using degrees Fahrenheit for public forecast. Weather courtesy of forecast.io.

Closest aviation weather report (METAR) to UMASS Memorial Medical Center-Univ Campus Heliport

Report is more than 6 hours old.

Closest report is Worcester Regional Airport, 5.2 nm (9.6 km) W.

2022/11/14 14:54 (retrieved 2 years ago)

KORH 141454Z 33016G21KT 10SM CLR 02/M07 A3019 RMK AO2 SLP233 T00171067 51022

Closest aviation forecast (TAF) to UMASS Memorial Medical Center-Univ Campus Heliport

Forecast is more than 12 hours old.

Closest forecast is Worcester Regional Airport, 5.2 nm (9.6 km) W.

2023/02/22 18:40 (retrieved 1 year ago)

TAF KORH 221738Z 2218/2318 27009KT P6SM OVC120 FM222300 22003KT 4SM -SN OVC020 FM230000 00000KT 4SM -SN BR OVC015 FM230400 14004KT 1SM -PL BR OVC008 FM230800 08007KT 1SM -PL BR OVC003 FM231700 05010G17KT 3SM BR VCSH OVC008